• Join FlightAware (Why Join?)
  • Login
  • US Flag 
02:46PM EDT


 

Airport Tracker/Info


-or-


 

Live Flight TrackerFlight Track Log ✈ SWA1563 ✈ 20-Jul-2013 ✈ KDAL - KAUS

Flight Track Log - Related Links

Times and Time Zones

All times are in EDT time to prevent confusion due to time zone crossing. See the SWA1563 flight status page for this flight to view local times or setup timezone preferences in your user account.

Time Position Orientation Groundspeed Altitude Reporting Facility
EDT Latitude Longitude Course Direction KTS MPH feet Rate Location/Type
10:41AM 32.8333 -96.8333 140° Southeast 171 197 1,300  Level Dallas / Fort Worth TRACON
10:42AM 32.8000 -96.8000 140° Southeast 234 269 2,700 1,980 Climbing Dallas / Fort Worth TRACON
10:44AM 32.6794 -96.8136 185° South 292 336 6,300 2,460 Climbing Fort Worth Center
10:45AM 32.5942 -96.8364 193° South 292 336 9,600 2,220 Climbing Fort Worth Center
10:46AM 32.5106 -96.8542 190° South 316 364 10,800 1,980 Climbing Fort Worth Center
10:47AM 32.4042 -96.8794 191° South 374 430 13,600 3,000 Climbing Fort Worth Center
10:48AM 32.2917 -96.9072 192° South 389 448 16,900 2,700 Climbing Fort Worth Center
10:49AM 32.1831 -96.9322 191° South 394 453 19,000 1,920 Climbing Fort Worth Center
10:50AM 32.0706 -96.9575 191° South 400 460 20,800 1,500 Climbing Fort Worth Center
10:51AM 31.9558 -96.9897 193° South 414 476 22,000 600 Climbing Fort Worth Center
10:52AM 31.8369 -97.0122 189° South 430 495 22,000  Level Fort Worth Center
10:52AM 31.7583 -97.0306 191° South 436 502 22,000  Level Houston Center
10:54AM 31.6381 -97.0569 191° South 435 501 22,000  Level Houston Center
10:55AM 31.5000 -97.0933 193° South 432 497 22,000  Level Houston Center
10:56AM 31.3844 -97.1394 199° South 433 498 22,000  Level Houston Center
10:57AM 31.2706 -97.1858 199° South 431 496 22,000 -780 Level Houston Center
10:58AM 31.1589 -97.2275 198° South 419 482 20,400 -1,860 Descending Houston Center
10:59AM 31.0561 -97.2692 199° South 395 455 18,200 -2,160 Descending Houston Center
11:00AM 30.9492 -97.3106 198° South 381 438 16,000 -2,160 Descending Houston Center
11:01AM 30.8475 -97.3494 198° South 369 425 13,800 -2,100 Descending Houston Center
11:02AM 30.7611 -97.3989 206° Southwest 348 400 11,800 -1,860 Descending Houston Center
11:03AM 30.6825 -97.4642 216° Southwest 344 396 10,000 -1,440 Descending Houston Center
11:04AM 30.6144 -97.5208 216° Southwest 308 354 8,900 -1,380 Descending Houston Center
11:05AM 30.5492 -97.5769 217° Southwest 291 335 7,200 -1,680 Descending Houston Center
11:06AM 30.4842 -97.6325 216° Southwest 288 331 5,500 -1,620 Descending Houston Center
11:07AM 30.4189 -97.6828 214° Southwest 283 326 4,000 -1,260 Descending Houston Center
11:08AM 30.3467 -97.6817 179° South 261 300 3,000 -1,020 Descending Houston Center
11:09AM 30.2856 -97.6806 179° South 209 241 2,000 -900 Descending Houston Center
11:10AM 30.2439 -97.6786 178° South 174 200 1,200 -780 Descending Houston Center